Time;durP1;ratioP1;P1;durP2;ratioP2;P2;SDS_P1;SDS_P2;PMS_P1;PMS_P2;Temp;Humidity;BMP_temperature;BMP_pressure;BME280_temperature;BME280_humidity;BME280_pressure;Samples;Min_cycle;Max_cycle;Signal;HPM_P1;HPM_P2
2021/11/14 00:00:07;;;;;;;1999.90;999.90;;;8.50;99.90;;;;;;5027067;28;20198;-81
2021/11/14 00:02:32;;;;;;;1999.90;999.90;;;8.50;99.90;;;;;;5026275;28;20210;-80
2021/11/14 00:04:58;;;;;;;1999.90;999.90;;;8.70;99.90;;;;;;5042629;28;20175;-80
2021/11/14 00:07:24;;;;;;;1999.90;999.90;;;8.40;99.90;;;;;;5026563;28;20186;-81
2021/11/14 00:09:49;;;;;;;1999.90;999.90;;;8.40;99.90;;;;;;5027757;28;20198;-81
2021/11/14 00:12:15;;;;;;;1999.90;999.90;;;8.30;99.90;;;;;;5027875;28;20186;-81
2021/11/14 00:14:40;;;;;;;1999.90;999.90;;;8.40;99.90;;;;;;5044636;28;20178;-81
2021/11/14 00:17:06;;;;;;;1999.90;999.90;;;8.40;99.90;;;;;;5027278;28;20182;-81
2021/11/14 00:19:31;;;;;;;1999.90;999.90;;;8.50;99.90;;;;;;5027346;28;20734;-81
2021/11/14 00:21:57;;;;;;;1999.90;999.90;;;8.60;99.90;;;;;;5027750;28;20207;-82
2021/11/14 00:24:23;;;;;;;1999.90;999.90;;;8.40;99.90;;;;;;5028238;28;20182;-82
2021/11/14 00:26:49;;;;;;;1999.90;999.90;;;8.30;99.90;;;;;;5044612;28;20266;-82
2021/11/14 00:29:14;;;;;;;1999.90;999.90;;;8.50;99.90;;;;;;5028224;28;20211;-82
2021/11/14 00:31:40;;;;;;;1999.90;999.90;;;8.50;99.90;;;;;;5045112;28;20228;-82
2021/11/14 00:34:06;;;;;;;1999.90;999.90;;;8.30;99.90;;;;;;5028325;28;20167;-82
2021/11/14 00:36:33;;;;;;;1999.90;999.90;;;8.40;99.90;;;;;;5028026;28;20269;-82
2021/11/14 00:38:58;;;;;;;1999.90;999.90;;;8.40;99.90;;;;;;5028159;28;20182;-82
2021/11/14 00:41:24;;;;;;;1999.90;999.90;;;8.50;99.90;;;;;;5044298;28;20259;-82
2021/11/14 00:43:51;;;;;;;1999.90;999.90;;;8.20;99.90;;;;;;5045190;28;20182;-81
2021/11/14 00:46:16;;;;;;;1999.90;999.90;;;8.30;99.90;;;;;;5027252;28;20620;-83
2021/11/14 00:48:42;;;;;;;1999.90;999.90;;;8.20;99.90;;;;;;5027060;28;20243;-82
2021/11/14 00:51:12;;;;;;;1999.90;999.90;;;8.10;99.90;;;;;;5043742;28;20286;-81
2021/11/14 00:53:38;;;;;;;1999.90;999.90;;;8.10;99.90;;;;;;5035224;28;20305;-77
2021/11/14 00:56:03;;;;;;;1999.90;999.90;;;8.10;99.90;;;;;;5019305;28;20228;-82
2021/11/14 00:58:30;;;;;;;1999.90;999.90;;;8.10;99.90;;;;;;5029674;28;20178;-82
2021/11/14 01:00:57;;;;;;;1999.90;999.90;;;;;;;;;;5028510;28;20697;-77
2021/11/14 01:03:24;;;;;;;1999.90;999.90;;;;;;;;;;5035822;28;20210;-77
2021/11/14 01:05:51;;;;;;;1999.90;999.90;;;;;;;;;;5034523;28;20556;-76
2021/11/14 01:08:17;;;;;;;1999.90;999.90;;;;;;;;;;5050080;28;20171;-77
2021/11/14 01:10:44;;;;;;;1999.90;999.90;;;;;;;;;;5050386;28;20205;-76
2021/11/14 01:13:10;;;;;;;1999.90;999.90;;;;;;;;;;5033967;28;20310;-77
2021/11/14 01:15:36;;;;;;;1999.90;999.90;;;;;;;;;;5034061;28;20625;-78
2021/11/14 01:18:02;;;;;;;1999.90;999.90;;;;;;;;;;5033685;28;20187;-78
2021/11/14 01:20:30;;;;;;;1999.90;999.90;;;;;;;;;;5051510;28;20634;-78
2021/11/14 01:22:56;;;;;;;1999.90;999.90;;;;;;;;;;5033700;28;20245;-78
2021/11/14 01:25:22;;;;;;;1999.90;999.90;;;;;;;;;;5033985;28;20188;-78
2021/11/14 01:27:48;;;;;;;1999.90;999.90;;;;;;;;;;5033436;28;20717;-77
2021/11/14 01:30:17;;;;;;;1999.90;999.90;;;;;;;;;;5050287;28;20611;-78
2021/11/14 01:32:43;;;;;;;1999.90;999.90;;;;;;;;;;5033805;28;20185;-78
2021/11/14 01:35:09;;;;;;;1999.90;999.90;;;;;;;;;;5033477;28;20186;-78
2021/11/14 01:37:36;;;;;;;1999.90;999.90;;;;;;;;;;5050204;28;20679;-78
2021/11/14 01:40:04;;;;;;;1999.90;999.90;;;;;;;;;;5033299;28;20261;-77
2021/11/14 01:42:30;;;;;;;1999.90;999.90;;;;;;;;;;5033782;28;20210;-77
2021/11/14 01:44:55;;;;;;;1999.90;999.90;;;7.30;99.90;;;;;;5049827;28;20175;-78
2021/11/14 01:47:21;;;;;;;1999.90;999.90;;;7.30;99.90;;;;;;5017412;28;20546;-78
2021/11/14 01:49:46;;;;;;;1999.90;999.90;;;7.40;99.90;;;;;;5016650;28;20198;-77
2021/11/14 01:52:23;;;;;;;1999.90;999.90;;;;;;;;;;5033526;28;20644;-78
2021/11/14 01:54:50;;;;;;;1999.90;999.90;;;;;;;;;;5033688;28;20186;-78
2021/11/14 01:57:16;;;;;;;1999.90;999.90;;;;;;;;;;5050287;28;20179;-78
2021/11/14 01:59:42;;;;;;;1999.90;999.90;;;;;;;;;;5033057;28;20259;-78
2021/11/14 02:02:10;;;;;;;1999.90;999.90;;;;;;;;;;5033919;28;20248;-77
2021/11/14 02:04:37;;;;;;;1999.90;999.90;;;;;;;;;;5033757;28;20813;-78
2021/11/14 02:07:04;;;;;;;1999.90;999.90;;;;;;;;;;5033572;28;20181;-79
2021/11/14 02:09:31;;;;;;;1999.90;999.90;;;;;;;;;;5049623;28;20178;-78
2021/11/14 02:11:57;;;;;;;1999.90;999.90;;;;;;;;;;5050379;28;20181;-80
2021/11/14 02:14:23;;;;;;;1999.90;999.90;;;;;;;;;;5050388;28;20226;-78
2021/11/14 02:16:49;;;;;;;1999.90;999.90;;;;;;;;;;5033420;28;20585;-80
2021/11/14 02:19:15;;;;;;;1999.90;999.90;;;;;;;;;;5049120;28;20279;-80
2021/11/14 02:21:41;;;;;;;1999.90;999.90;;;;;;;;;;5033489;28;20247;-80
2021/11/14 02:24:07;;;;;;;1999.90;999.90;;;;;;;;;;5033513;28;20183;-80
2021/11/14 02:26:33;;;;;;;1999.90;999.90;;;;;;;;;;5049708;28;20270;-81
2021/11/14 02:28:59;;;;;;;1999.90;999.90;;;7.30;99.90;;;;;;5033326;28;20604;-81
2021/11/14 02:31:25;;;;;;;1999.90;999.90;;;7.20;99.90;;;;;;5016977;28;20252;-78
2021/11/14 02:33:50;;;;;;;1999.90;999.90;;;7.30;99.90;;;;;;5017082;28;20663;-79
2021/11/14 02:36:16;;;;;;;1999.90;999.90;;;7.30;99.90;;;;;;5033557;28;20170;-78
2021/11/14 02:38:42;;;;;;;1999.90;999.90;;;7.10;99.90;;;;;;5016607;28;20176;-78
2021/11/14 02:41:08;;;;;;;1999.90;999.90;;;7.20;99.90;;;;;;5016973;28;20288;-79
2021/11/14 02:43:34;;;;;;;1999.90;999.90;;;7.00;99.90;;;;;;5033526;28;20205;-78
2021/11/14 02:46:00;;;;;;;1999.90;999.90;;;6.90;99.90;;;;;;5017120;28;20174;-78
2021/11/14 02:48:26;;;;;;;1999.90;999.90;;;6.80;99.90;;;;;;5032896;28;20221;-78
2021/11/14 02:50:52;;;;;;;1999.90;999.90;;;6.90;99.90;;;;;;5017146;28;20257;-80
2021/11/14 02:53:18;;;;;;;1999.90;999.90;;;6.90;99.90;;;;;;5016934;28;20178;-78
2021/11/14 02:55:44;;;;;;;1999.90;999.90;;;6.60;99.90;;;;;;5033255;28;20187;-81
2021/11/14 02:58:09;;;;;;;1999.90;999.90;;;6.60;99.90;;;;;;5018853;28;20630;-81
2021/11/14 03:00:39;;;;;;;1999.90;999.90;;;6.50;99.90;;;;;;5020013;28;20217;-78
2021/11/14 03:03:05;;;;;;;1999.90;999.90;;;6.70;99.90;;;;;;5036818;28;20223;-78
2021/11/14 03:05:30;;;;;;;1999.90;999.90;;;6.60;99.90;;;;;;5020339;28;20180;-80
2021/11/14 03:07:56;;;;;;;1999.90;999.90;;;6.50;99.90;;;;;;5019838;28;20698;-78
2021/11/14 03:10:24;;;;;;;1999.90;999.90;;;6.40;99.90;;;;;;5036783;28;20194;-79
2021/11/14 03:12:58;;;;;;;1999.90;999.90;;;6.30;99.90;;;;;;5019804;28;20182;-79
2021/11/14 03:15:24;;;;;;;1999.90;999.90;;;6.50;99.90;;;;;;5036597;28;20601;-78
2021/11/14 03:17:50;;;;;;;1999.90;999.90;;;6.40;99.90;;;;;;5019529;28;20183;-78
2021/11/14 03:20:15;;;;;;;1999.90;999.90;;;6.30;99.90;;;;;;5019844;28;20277;-78
2021/11/14 03:22:41;;;;;;;1999.90;999.90;;;6.30;99.90;;;;;;5019667;28;20205;-78
2021/11/14 03:25:07;;;;;;;1999.90;999.90;;;6.40;99.90;;;;;;5019863;28;20660;-79
2021/11/14 03:27:32;;;;;;;1999.90;999.90;;;6.30;99.90;;;;;;5052944;28;20180;-79
2021/11/14 03:29:58;;;;;;;1999.90;999.90;;;6.20;99.90;;;;;;5019375;28;20695;-78
2021/11/14 03:32:23;;;;;;;1999.90;999.90;;;6.30;99.90;;;;;;5036273;28;20352;-78
2021/11/14 03:34:49;;;;;;;1999.90;999.90;;;6.30;99.90;;;;;;5036237;28;20183;-79
2021/11/14 03:37:18;;;;;;;1999.90;999.90;;;6.40;99.90;;;;;;5036136;28;20193;-79
2021/11/14 03:39:44;;;;;;;1999.90;999.90;;;6.10;99.90;;;;;;5051626;28;20256;-78
2021/11/14 03:42:10;;;;;;;1999.90;999.90;;;6.10;99.90;;;;;;5019457;28;20684;-80
2021/11/14 03:44:35;;;;;;;1999.90;999.90;;;6.00;99.90;;;;;;5018320;28;20214;-79
2021/11/14 03:47:01;;;;;;;1999.90;999.90;;;6.30;99.90;;;;;;5036067;28;20606;-80
2021/11/14 03:49:27;;;;;;;1999.90;999.90;;;6.00;99.90;;;;;;5036029;28;20163;-80
2021/11/14 03:51:52;;;;;;;1999.90;999.90;;;6.00;99.90;;;;;;5019782;28;20213;-78
2021/11/14 03:54:18;;;;;;;1999.90;999.90;;;5.90;99.90;;;;;;5019366;28;20178;-79
2021/11/14 03:56:43;;;;;;;1999.90;999.90;;;6.00;99.90;;;;;;5019374;28;20182;-81
2021/11/14 03:59:09;;;;;;;1999.90;999.90;;;5.90;99.90;;;;;;5018917;28;20179;-81
2021/11/14 04:01:34;;;;;;;1999.90;999.90;;;5.90;99.90;;;;;;5018946;28;20256;-78
2021/11/14 04:04:00;;;;;;;1999.90;999.90;;;5.80;99.90;;;;;;5038555;28;20182;-80
2021/11/14 04:06:26;;;;;;;1999.90;999.90;;;5.70;99.90;;;;;;5023070;28;20185;-81
2021/11/14 04:08:56;;;;;;;1999.90;999.90;;;6.00;99.90;;;;;;5021480;28;20272;-81
2021/11/14 04:11:22;;;;;;;1999.90;999.90;;;5.90;99.90;;;;;;5039383;28;20198;-80
2021/11/14 04:13:48;;;;;;;1999.90;999.90;;;6.10;99.90;;;;;;5039544;28;20236;-83
2021/11/14 04:16:13;;;;;;;1999.90;999.90;;;5.60;99.90;;;;;;5022485;28;20178;-84
2021/11/14 04:18:39;;;;;;;1999.90;999.90;;;5.70;99.90;;;;;;5021611;28;20189;-81
2021/11/14 04:21:06;;;;;;;1999.90;999.90;;;5.70;99.90;;;;;;5037543;28;20700;-81
2021/11/14 04:23:31;;;;;;;1999.90;999.90;;;5.70;99.90;;;;;;5037813;28;20210;-81
2021/11/14 04:25:57;;;;;;;1999.90;999.90;;;5.70;99.90;;;;;;5021704;28;20561;-81
2021/11/14 04:28:23;;;;;;;1999.90;999.90;;;5.60;99.90;;;;;;5037475;28;20656;-82
2021/11/14 04:30:49;;;;;;;1999.90;999.90;;;5.60;99.90;;;;;;5037721;28;20193;-83
2021/11/14 04:33:15;;;;;;;1999.90;999.90;;;5.80;99.90;;;;;;5022055;28;20260;-82
2021/11/14 04:35:41;;;;;;;1999.90;999.90;;;5.70;99.90;;;;;;5022036;28;20548;-82
2021/11/14 04:38:06;;;;;;;1999.90;999.90;;;5.60;99.90;;;;;;5037832;28;20204;-82
2021/11/14 04:40:36;;;;;;;1999.90;999.90;;;5.70;99.90;;;;;;5021278;28;20194;-84
2021/11/14 04:43:01;;;;;;;1999.90;999.90;;;5.60;99.90;;;;;;5021931;28;20232;-82
2021/11/14 04:45:27;;;;;;;1999.90;999.90;;;5.80;99.90;;;;;;5037864;28;20171;-84
2021/11/14 04:47:52;;;;;;;1999.90;999.90;;;5.50;99.90;;;;;;5054389;28;20171;-81
2021/11/14 04:50:19;;;;;;;1999.90;999.90;;;5.60;99.90;;;;;;5021387;28;20226;-84
2021/11/14 04:52:46;;;;;;;1999.90;999.90;;;5.60;99.90;;;;;;5038164;28;20171;-83
2021/11/14 04:55:11;;;;;;;1999.90;999.90;;;5.40;99.90;;;;;;5021355;28;20190;-81
2021/11/14 04:57:37;;;;;;;1999.90;999.90;;;5.50;99.90;;;;;;5020694;28;20182;-83
2021/11/14 05:00:08;;;;;;;1999.90;999.90;;;5.60;99.90;;;;;;5020882;28;20214;-82
2021/11/14 05:02:34;;;;;;;1999.90;999.90;;;5.40;99.90;;;;;;5021115;28;20203;-82
2021/11/14 05:05:00;;;;;;;1999.90;999.90;;;5.40;99.90;;;;;;5054496;28;20617;-82
2021/11/14 05:07:25;;;;;;;1999.90;999.90;;;5.30;99.90;;;;;;5020990;28;20224;-82
2021/11/14 05:09:51;;;;;;;1999.90;999.90;;;5.60;99.90;;;;;;5020361;28;20204;-83
2021/11/14 05:12:16;;;;;;;1999.90;999.90;;;5.50;99.90;;;;;;5021134;28;20210;-82
2021/11/14 05:14:42;;;;;;;1999.90;999.90;;;5.50;99.90;;;;;;5037522;28;20209;-82
2021/11/14 05:17:07;;;;;;;1999.90;999.90;;;5.60;99.90;;;;;;5020840;28;20182;-82
2021/11/14 05:19:33;;;;;;;1999.90;999.90;;;5.90;99.90;;;;;;5036365;28;20217;-84
2021/11/14 05:21:58;;;;;;;1999.90;999.90;;;5.50;99.90;;;;;;5037441;28;20214;-81
2021/11/14 05:24:24;;;;;;;1999.90;999.90;;;5.90;99.90;;;;;;5020875;28;20178;-82
2021/11/14 05:26:53;;;;;;;1999.90;999.90;;;5.80;99.90;;;;;;5037275;28;20182;-83
2021/11/14 05:29:18;;;;;;;1999.90;999.90;;;5.90;99.90;;;;;;5021565;28;20181;-81
2021/11/14 05:31:44;;;;;;;1999.90;999.90;;;5.70;99.90;;;;;;5021432;28;20277;-82
2021/11/14 05:34:09;;;;;;;1999.90;999.90;;;5.90;99.90;;;;;;5040435;28;20178;-81
2021/11/14 05:36:35;;;;;;;1999.90;999.90;;;6.30;99.90;;;;;;5038820;28;20177;-83
2021/11/14 05:39:01;;;;;;;1999.90;999.90;;;6.30;99.90;;;;;;5038228;28;20170;-81
2021/11/14 05:41:27;;;;;;;1999.90;999.90;;;6.20;99.90;;;;;;5023394;28;20195;-80
2021/11/14 05:43:53;;;;;;;1999.90;999.90;;;6.00;99.90;;;;;;5023396;28;20772;-80
2021/11/14 05:46:18;;;;;;;1999.90;999.90;;;6.00;99.90;;;;;;5040262;28;20254;-80
2021/11/14 05:48:44;;;;;;;1999.90;999.90;;;6.10;99.90;;;;;;5073323;28;20189;-81
2021/11/14 05:51:09;;;;;;;1999.90;999.90;;;6.00;99.90;;;;;;5064069;28;20602;-80
2021/11/14 05:53:35;;;;;;;1999.90;999.90;;;6.40;99.90;;;;;;5057837;28;20224;-80
2021/11/14 05:56:01;;;;;;;1999.90;999.90;;;6.00;99.90;;;;;;5053814;28;20192;-81
2021/11/14 05:58:39;;;;;;;1999.90;999.90;;;6.20;99.90;;;;;;5036500;28;20242;-81
2021/11/14 06:01:11;;;;;;;1999.90;999.90;;;6.10;99.90;;;;;;5051879;28;20289;-81
2021/11/14 06:03:44;;;;;;;1999.90;999.90;;;6.20;99.90;;;;;;5041537;28;20298;-83
2021/11/14 06:06:10;;;;;;;1999.90;999.90;;;6.20;99.90;;;;;;5021308;28;20244;-83
2021/11/14 06:08:36;;;;;;;1999.90;999.90;;;6.10;99.90;;;;;;5019053;28;20637;-83
2021/11/14 06:11:01;;;;;;;1999.90;999.90;;;6.20;99.90;;;;;;5019172;28;20199;-84
2021/11/14 06:13:27;;;;;;;1999.90;999.90;;;6.40;99.90;;;;;;5019137;28;20179;-83
2021/11/14 06:15:53;;;;;;;1999.90;999.90;;;6.20;99.90;;;;;;5035639;28;20179;-84
2021/11/14 06:18:19;;;;;;;1999.90;999.90;;;6.20;99.90;;;;;;5019150;28;20179;-84
2021/11/14 06:20:45;;;;;;;1999.90;999.90;;;6.30;99.90;;;;;;5018091;28;20207;-84
2021/11/14 06:23:11;;;;;;;1999.90;999.90;;;6.50;99.90;;;;;;5033927;28;20264;-83
2021/11/14 06:25:36;;;;;;;1999.90;999.90;;;6.70;99.90;;;;;;5018459;28;20182;-83
2021/11/14 06:28:04;;;;;;;1999.90;999.90;;;6.30;99.90;;;;;;5034432;28;20180;-83
2021/11/14 06:30:29;;;;;;;1999.90;999.90;;;6.40;99.90;;;;;;5019128;28;20583;-83
2021/11/14 06:32:55;;;;;;;1999.90;999.90;;;6.50;99.90;;;;;;5039116;28;20179;-83
2021/11/14 06:35:20;;;;;;;1999.90;999.90;;;7.10;99.90;;;;;;5021808;28;20174;-84
2021/11/14 06:37:46;;;;;;;1999.90;999.90;;;7.00;99.90;;;;;;5022824;28;20926;-84
2021/11/14 06:40:12;;;;;;;1999.90;999.90;;;6.90;99.90;;;;;;5050969;28;20348;-84
2021/11/14 06:42:37;;;;;;;1999.90;999.90;;;6.80;99.90;;;;;;5050252;28;20294;-84
2021/11/14 06:45:04;;;;;;;1999.90;999.90;;;6.70;99.90;;;;;;5053640;28;20233;-84
2021/11/14 06:47:29;;;;;;;1999.90;999.90;;;6.50;99.90;;;;;;5053799;28;20177;-83
2021/11/14 06:49:55;;;;;;;1999.90;999.90;;;6.60;99.90;;;;;;5036030;28;20195;-84
2021/11/14 06:52:22;;;;;;;1999.90;999.90;;;6.60;99.90;;;;;;5053060;28;20266;-84
2021/11/14 06:54:48;;;;;;;1999.90;999.90;;;6.50;99.90;;;;;;5052805;28;20185;-84
2021/11/14 06:57:13;;;;;;;1999.90;999.90;;;7.00;99.90;;;;;;5070277;28;20179;-84
2021/11/14 06:59:39;;;;;;;1999.90;999.90;;;6.70;99.90;;;;;;5070016;28;20278;-82
2021/11/14 07:02:08;;;;;;;1999.90;999.90;;;7.10;99.90;;;;;;5070152;28;20238;-83
2021/11/14 07:04:34;;;;;;;1999.90;999.90;;;6.60;99.90;;;;;;5053058;28;20182;-83
2021/11/14 07:07:00;;;;;;;1999.90;999.90;;;6.90;99.90;;;;;;5052542;28;20192;-84
2021/11/14 07:09:25;;;;;;;1999.90;999.90;;;6.90;99.90;;;;;;5052651;28;20186;-84
2021/11/14 07:11:53;;;;;;;1999.90;999.90;;;6.70;99.90;;;;;;5072857;28;20210;-80
2021/11/14 07:14:20;;;;;;;1999.90;999.90;;;6.70;99.90;;;;;;5054802;28;20170;-82
2021/11/14 07:16:46;;;;;;;1999.90;999.90;;;6.60;99.90;;;;;;5056668;28;20175;-84
2021/11/14 07:19:11;;;;;;;1999.90;999.90;;;6.70;99.90;;;;;;5056160;28;20203;-85
2021/11/14 07:21:37;;;;;;;1999.90;999.90;;;6.70;99.90;;;;;;5074631;28;20220;-83
2021/11/14 07:24:03;;;;;;;1999.90;999.90;;;6.70;99.90;;;;;;5072625;28;20201;-81
2021/11/14 07:26:29;;;;;;;1999.90;999.90;;;6.70;99.90;;;;;;5072718;28;20305;-80
2021/11/14 07:28:54;;;;;;;1999.90;999.90;;;6.90;99.90;;;;;;5055758;28;20178;-81
2021/11/14 07:31:20;;;;;;;1999.90;999.90;;;6.80;99.90;;;;;;5057284;28;20187;-82
2021/11/14 07:33:45;;;;;;;1999.90;999.90;;;6.90;99.90;;;;;;5054783;28;20183;-81
2021/11/14 07:36:11;;;;;;;1999.90;999.90;;;6.80;99.90;;;;;;5053522;28;20178;-82
2021/11/14 07:38:36;;;;;;;1999.90;999.90;;;6.70;99.90;;;;;;5054106;28;20182;-82
2021/11/14 07:41:02;;;;;;;1999.90;999.90;;;6.80;99.90;;;;;;5053107;28;20239;-80
2021/11/14 07:43:28;;;;;;;1999.90;999.90;;;6.80;99.90;;;;;;5035965;28;20212;-80
2021/11/14 07:45:54;;;;;;;1999.90;999.90;;;6.80;99.90;;;;;;5056125;28;20209;-85
2021/11/14 07:48:20;;;;;;;1999.90;999.90;;;6.80;99.90;;;;;;5056272;28;20181;-78
2021/11/14 07:50:46;;;;;;;1999.90;999.90;;;6.90;99.90;;;;;;5055281;28;20677;-76
2021/11/14 07:53:11;;;;;;;1999.90;999.90;;;7.10;99.90;;;;;;5036342;28;20206;-78
2021/11/14 07:55:37;;;;;;;1999.90;999.90;;;7.00;99.90;;;;;;5054882;28;20213;-79
2021/11/14 07:58:05;;;;;;;1999.90;999.90;;;7.00;99.90;;;;;;5056765;28;20181;-84
2021/11/14 08:00:31;;;;;;;1999.90;999.90;;;6.90;99.90;;;;;;5073009;28;20190;-83
2021/11/14 08:02:57;;;;;;;1999.90;999.90;;;7.00;99.90;;;;;;5055786;28;20251;-82
2021/11/14 08:05:22;;;;;;;1999.90;999.90;;;7.60;99.90;;;;;;5055723;28;20183;-83
2021/11/14 08:07:48;;;;;;;1999.90;999.90;;;7.00;99.90;;;;;;5056054;28;20207;-83
2021/11/14 08:10:14;;;;;;;1999.90;999.90;;;7.00;99.90;;;;;;5073002;28;20204;-83
2021/11/14 08:12:40;;;;;;;1999.90;999.90;;;7.10;99.90;;;;;;5054079;28;20187;-80
2021/11/14 08:15:06;;;;;;;1999.90;999.90;;;7.20;99.90;;;;;;5052061;28;20271;-80
2021/11/14 08:17:31;;;;;;;1999.90;999.90;;;7.10;99.90;;;;;;5068490;28;20645;-78
2021/11/14 08:20:00;;;;;;;1999.90;999.90;;;7.20;99.90;;;;;;5035567;28;20219;-79
2021/11/14 08:22:28;;;;;;;1999.90;999.90;;;7.10;99.90;;;;;;5052012;28;20750;-80
2021/11/14 08:24:55;;;;;;;1999.90;999.90;;;7.20;99.90;;;;;;5068992;28;20182;-77
2021/11/14 08:27:24;;;;;;;1999.90;999.90;;;7.20;99.90;;;;;;5051597;28;20205;-77
2021/11/14 08:29:50;;;;;;;1999.90;999.90;;;7.30;99.90;;;;;;5048512;28;20205;-77
2021/11/14 08:32:17;;;;;;;1999.90;999.90;;;7.40;99.90;;;;;;5031276;28;20186;-79
2021/11/14 08:34:43;;;;;;;1999.90;999.90;;;7.30;99.90;;;;;;5041077;28;20174;-77
2021/11/14 08:37:09;;;;;;;1999.90;999.90;;;7.40;99.90;;;;;;5059204;28;20179;-77
2021/11/14 08:39:35;;;;;;;1999.90;999.90;;;7.40;99.90;;;;;;5047731;28;20210;-74
2021/11/14 08:42:00;;;;;;;1999.90;999.90;;;7.50;99.90;;;;;;5031129;28;20186;-77
2021/11/14 08:44:28;;;;;;;1999.90;999.90;;;7.40;99.90;;;;;;5051280;28;20689;-75
2021/11/14 08:46:54;;;;;;;1999.90;999.90;;;7.50;99.90;;;;;;5067733;28;20174;-77
2021/11/14 08:49:19;;;;;;;1999.90;999.90;;;7.50;99.90;;;;;;5050630;28;20210;-77
2021/11/14 08:51:45;;;;;;;1999.90;999.90;;;7.50;99.90;;;;;;5067528;28;20211;-75
2021/11/14 08:54:11;;;;;;;1999.90;999.90;;;7.70;99.90;;;;;;5067955;28;20177;-74
2021/11/14 08:56:38;;;;;;;1999.90;999.90;;;7.60;99.90;;;;;;5067655;28;20179;-74
2021/11/14 08:59:04;;;;;;;1999.90;999.90;;;7.60;99.90;;;;;;5066943;28;20862;-74
2021/11/14 09:01:30;;;;;;;1999.90;999.90;;;7.60;99.90;;;;;;5067641;28;20198;-76
2021/11/14 09:03:55;;;;;;;1999.90;999.90;;;7.70;99.90;;;;;;5034632;28;20210;-72
2021/11/14 09:06:21;;;;;;;1999.90;999.90;;;7.70;99.90;;;;;;5051260;28;20648;-73
2021/11/14 09:08:46;;;;;;;1999.90;999.90;;;7.80;99.90;;;;;;5050875;28;20174;-74
2021/11/14 09:11:12;;;;;;;1999.90;999.90;;;7.80;99.90;;;;;;5034496;28;20198;-76
2021/11/14 09:13:38;;;;;;;1999.90;999.90;;;7.80;99.90;;;;;;5017623;28;20314;-76
2021/11/14 09:16:04;;;;;;;1999.90;999.90;;;7.80;99.90;;;;;;5017374;28;20558;-75
2021/11/14 09:18:29;;;;;;;1999.90;999.90;;;7.90;99.90;;;;;;5034291;28;20184;-75
2021/11/14 09:20:55;;;;;;;1999.90;999.90;;;7.90;99.90;;;;;;5034559;28;20750;-75
2021/11/14 09:23:20;;;;;;;1999.90;999.90;;;7.90;99.90;;;;;;5051035;28;20289;-74
2021/11/14 09:25:47;;;;;;;1999.90;999.90;;;8.00;99.90;;;;;;5051541;28;20240;-74
2021/11/14 09:28:14;;;;;;;1999.90;999.90;;;8.00;99.90;;;;;;5016513;28;20210;-74
2021/11/14 09:30:42;;;;;;;1999.90;999.90;;;8.00;99.90;;;;;;5050293;28;20207;-76
2021/11/14 09:33:08;;;;;;;1999.90;999.90;;;8.20;99.90;;;;;;5066447;28;20193;-75
2021/11/14 09:35:33;;;;;;;1999.90;999.90;;;8.00;99.90;;;;;;5050209;28;20265;-75
2021/11/14 09:37:59;;;;;;;1999.90;999.90;;;8.10;99.90;;;;;;5046846;28;20187;-75
2021/11/14 09:40:24;;;;;;;1999.90;999.90;;;8.10;99.90;;;;;;5047366;28;20587;-75
2021/11/14 09:42:50;;;;;;;1999.90;999.90;;;8.10;99.90;;;;;;5030465;28;20207;-75
2021/11/14 09:45:16;;;;;;;1999.90;999.90;;;8.20;99.90;;;;;;5047410;28;20209;-75
2021/11/14 09:47:41;;;;;;;1999.90;999.90;;;8.10;99.90;;;;;;5047248;28;20651;-76
2021/11/14 09:50:08;;;;;;;1999.90;999.90;;;8.10;99.90;;;;;;5046853;28;20205;-76
2021/11/14 09:52:33;;;;;;;1999.90;999.90;;;8.10;99.90;;;;;;5030433;28;20220;-74
2021/11/14 09:55:01;;;;;;;1999.90;999.90;;;8.20;99.90;;;;;;5047405;28;20170;-77
2021/11/14 09:57:27;;;;;;;1999.90;999.90;;;8.20;99.90;;;;;;5047145;28;20634;-77
2021/11/14 09:59:52;;;;;;;1999.90;999.90;;;8.20;99.90;;;;;;5030795;28;20209;-77
2021/11/14 10:02:18;;;;;;;1999.90;999.90;;;8.40;99.90;;;;;;5047305;28;20678;-75
2021/11/14 10:04:44;;;;;;;1999.90;999.90;;;8.20;99.90;;;;;;5047335;28;20172;-75
2021/11/14 10:07:14;;;;;;;1999.90;999.90;;;8.30;99.90;;;;;;5050640;28;20662;-77
2021/11/14 10:09:47;;;;;;;1999.90;999.90;;;8.30;99.90;;;;;;5068054;28;20619;-77
2021/11/14 10:12:16;;;;;;;1999.90;999.90;;;8.20;99.90;;;;;;5033951;28;20189;-76
2021/11/14 10:14:42;;;;;;;1999.90;999.90;;;8.30;99.90;;;;;;5051082;28;20585;-76
2021/11/14 10:17:24;;;;;;;1999.90;999.90;;;8.40;99.90;;;;;;5051193;28;20189;-77
2021/11/14 10:20:05;;;;;;;1999.90;999.90;;;8.30;99.90;;;;;;5049669;28;20243;-77
2021/11/14 10:22:31;;;;;;;1999.90;999.90;;;8.40;99.90;;;;;;5035966;28;20201;-77
2021/11/14 10:24:57;;;;;;;1999.90;999.90;;;8.40;99.90;;;;;;5051298;28;20206;-76
2021/11/14 10:27:26;;;;;;;1999.90;999.90;;;8.50;99.90;;;;;;5050897;28;20184;-76
2021/11/14 10:29:52;;;;;;;1999.90;999.90;;;8.50;99.90;;;;;;5034326;28;20208;-76
2021/11/14 10:32:18;;;;;;;1999.90;999.90;;;8.50;99.90;;;;;;5034268;28;20183;-77
2021/11/14 10:34:50;;;;;;;1999.90;999.90;;;8.50;99.90;;;;;;5068160;28;20177;-77
2021/11/14 10:37:18;;;;;;;1999.90;999.90;;;8.60;99.90;;;;;;5050874;28;20239;-77
2021/11/14 10:39:44;;;;;;;1999.90;999.90;;;8.60;99.90;;;;;;5033926;28;20204;-77
2021/11/14 10:42:13;;;;;;;1999.90;999.90;;;8.60;99.90;;;;;;5034189;28;20219;-77
2021/11/14 10:44:53;;;;;;;1999.90;999.90;;;8.70;99.90;;;;;;5050734;28;20238;-76
2021/11/14 10:47:22;;;;;;;1999.90;999.90;;;;;;;;;;5049920;28;20184;-75
2021/11/14 10:50:10;;;;;;;1999.90;999.90;;;8.70;99.90;;;;;;5065263;28;20226;-76
2021/11/14 10:52:36;;;;;;;1999.90;999.90;;;8.70;99.90;;;;;;5049503;28;20556;-76
2021/11/14 10:55:08;;;;;;;1999.90;999.90;;;8.80;99.90;;;;;;5034931;28;20189;-76
2021/11/14 10:57:34;;;;;;;1999.90;999.90;;;8.80;99.90;;;;;;5049808;28;20194;-77
2021/11/14 11:00:00;;;;;;;1999.90;999.90;;;8.90;99.90;;;;;;5066005;28;20203;-76
2021/11/14 11:02:26;;;;;;;1999.90;999.90;;;9.00;99.90;;;;;;5066514;28;20205;-77
2021/11/14 11:04:52;;;;;;;1999.90;999.90;;;9.00;99.90;;;;;;5050248;28;20205;-75
2021/11/14 11:07:18;;;;;;;1999.90;999.90;;;9.00;99.90;;;;;;5066887;28;20171;-75
2021/11/14 11:09:43;;;;;;;1999.90;999.90;;;9.00;99.90;;;;;;5066472;28;20201;-76
2021/11/14 11:12:17;;;;;;;1999.90;999.90;;;9.00;99.90;;;;;;5033588;28;20186;-77
2021/11/14 11:14:56;;;;;;;1999.90;999.90;;;9.10;99.90;;;;;;5049597;28;20186;-76
2021/11/14 11:17:23;;;;;;;1999.90;999.90;;;9.20;99.90;;;;;;5047570;28;20644;-75
2021/11/14 11:19:48;;;;;;;1999.90;999.90;;;9.40;99.90;;;;;;5049143;28;20217;-75
2021/11/14 11:22:14;;;;;;;1999.90;999.90;;;9.40;99.90;;;;;;5049781;28;20216;-75
2021/11/14 11:24:50;;;;;;;1999.90;999.90;;;9.70;99.90;;;;;;5034105;28;20660;-74
2021/11/14 11:27:15;;;;;;;1999.90;999.90;;;9.70;99.90;;;;;;5066118;28;20185;-76
2021/11/14 11:29:41;;;;;;;1999.90;999.90;;;9.70;99.90;;;;;;5065674;28;20205;-76
2021/11/14 11:32:07;;;;;;;1999.90;999.90;;;9.70;99.90;;;;;;5049338;28;20605;-76
2021/11/14 11:34:33;;;;;;;1999.90;999.90;;;9.70;99.90;;;;;;5049329;28;20182;-76
2021/11/14 11:36:59;;;;;;;1999.90;999.90;;;9.90;99.90;;;;;;5065733;28;20175;-75
2021/11/14 11:39:25;;;;;;;1999.90;999.90;;;9.80;99.90;;;;;;5031952;28;20231;-76
2021/11/14 11:41:52;;;;;;;1999.90;999.90;;;9.80;99.90;;;;;;5049084;28;20708;-75
2021/11/14 11:44:18;;;;;;;1999.90;999.90;;;9.80;99.90;;;;;;5049224;28;20213;-76
2021/11/14 11:46:50;;;;;;;1999.90;999.90;;;9.70;99.90;;;;;;5033592;28;20198;-76
2021/11/14 11:49:21;;;;;;;1999.90;999.90;;;9.80;99.90;;;;;;5031167;28;20227;-75
2021/11/14 11:51:49;;;;;;;1999.90;999.90;;;9.80;99.90;;;;;;5065503;28;20162;-74
2021/11/14 11:54:17;;;;;;;1999.90;999.90;;;9.80;99.90;;;;;;5048682;28;20192;-75
2021/11/14 11:56:50;;;;;;;1999.90;999.90;;;9.70;99.90;;;;;;5048598;28;20200;-75
2021/11/14 11:59:21;;;;;;;1999.90;999.90;;;9.70;99.90;;;;;;5047745;28;20181;-76
2021/11/14 12:01:49;;;;;;;1999.90;999.90;;;9.80;99.90;;;;;;5065276;28;20167;-75
2021/11/14 12:04:20;;;;;;;1999.90;999.90;;;9.90;99.90;;;;;;5031454;28;20190;-75
2021/11/14 12:07:06;;;;;;;1999.90;999.90;;;10.10;99.90;;;;;;5031877;28;20185;-76
2021/11/14 12:09:44;;;;;;;1999.90;999.90;;;10.10;99.90;;;;;;5047696;28;20952;-75
2021/11/14 12:12:34;;;;;;;1999.90;999.90;;;10.30;99.90;;;;;;5031523;28;20186;-76
2021/11/14 12:15:24;;;;;;;1999.90;999.90;;;10.10;99.90;;;;;;5049121;28;20174;-76